Time;durP1;ratioP1;P1;durP2;ratioP2;P2;SDS_P1;SDS_P2;PMS_P1;PMS_P2;Temp;Humidity;BMP_temperature;BMP_pressure;BME280_temperature;BME280_humidity;BME280_pressure;Samples;Min_cycle;Max_cycle;Signal;HPM_P1;HPM_P2
2024/01/07 00:00:29;;;;;;;15.55;10.93;;;;;;;6.28;61.59;101635.88;5145835;27;20046;-71
2024/01/07 00:02:57;;;;;;;13.90;10.48;;;;;;;6.31;61.27;101622.16;5153161;27;20126;-71
2024/01/07 00:05:25;;;;;;;14.52;10.32;;;;;;;6.38;60.95;101628.47;5142982;27;20469;-71
2024/01/07 00:07:55;;;;;;;17.30;11.82;;;;;;;6.42;60.45;101633.28;5148939;27;20047;-71
2024/01/07 00:10:23;;;;;;;15.70;11.35;;;;;;;6.44;60.25;101625.09;5153199;27;20054;-71
2024/01/07 00:12:52;;;;;;;15.45;10.75;;;;;;;6.37;60.54;101643.66;5153269;27;20035;-71
2024/01/07 00:15:20;;;;;;;19.50;11.73;;;;;;;6.28;61.15;101644.72;5143684;27;20130;-70
2024/01/07 00:17:48;;;;;;;17.25;12.18;;;;;;;6.29;60.73;101641.03;5149859;27;20039;-71
2024/01/07 00:20:16;;;;;;;16.75;12.35;;;;;;;6.29;61.26;101640.19;5145615;27;20517;-71
2024/01/07 00:22:43;;;;;;;19.63;12.65;;;;;;;6.25;60.91;101645.06;5155989;27;20046;-71
2024/01/07 00:25:13;;;;;;;17.30;11.80;;;;;;;6.22;61.10;101653.41;5158104;27;20050;-71
2024/01/07 00:27:40;;;;;;;16.92;11.95;;;;;;;6.25;61.45;101652.22;5155051;27;20487;-71
2024/01/07 00:30:09;;;;;;;18.13;12.02;;;;;;;6.30;60.85;101637.34;5153571;27;20063;-71
2024/01/07 00:32:37;;;;;;;18.77;11.85;;;;;;;6.26;60.79;101644.03;5143769;27;20051;-71
2024/01/07 00:35:05;;;;;;;19.15;12.13;;;;;;;6.30;60.89;101650.69;5157974;27;20043;-71
2024/01/07 00:37:34;;;;;;;17.52;11.70;;;;;;;6.30;60.84;101656.03;5146754;27;20039;-71
2024/01/07 00:40:02;;;;;;;17.08;11.75;;;;;;;6.33;60.75;101647.69;5143085;27;20043;-70
2024/01/07 00:42:32;;;;;;;20.52;12.93;;;;;;;6.36;60.04;101652.69;5150336;27;20074;-71
2024/01/07 00:44:59;;;;;;;19.67;13.15;;;;;;;6.37;60.30;101649.00;5153438;27;20407;-71
2024/01/07 00:47:27;;;;;;;18.75;12.77;;;;;;;6.31;60.33;101659.53;5160366;27;20051;-71
2024/01/07 00:49:55;;;;;;;19.75;13.10;;;;;;;6.31;60.52;101663.03;5145877;27;20047;-70
2024/01/07 00:52:23;;;;;;;23.95;12.93;;;;;;;6.36;60.83;101667.88;5155910;27;20055;-71
2024/01/07 00:54:51;;;;;;;18.50;12.43;;;;;;;6.40;60.47;101670.00;5156826;27;20058;-71
2024/01/07 00:57:19;;;;;;;18.73;12.38;;;;;;;6.33;60.74;101666.38;5158102;27;20082;-71
2024/01/07 00:59:48;;;;;;;19.50;13.32;;;;;;;6.36;60.45;101676.69;5149883;27;20053;-71
2024/01/07 01:02:15;;;;;;;19.35;12.40;;;;;;;6.41;60.48;101676.19;5151587;27;20047;-71
2024/01/07 01:04:43;;;;;;;19.38;12.73;;;;;;;6.40;60.30;101685.19;5148806;27;20154;-71
2024/01/07 01:07:11;;;;;;;18.30;11.45;;;;;;;6.40;60.71;101675.34;5148548;27;20133;-71
2024/01/07 01:09:39;;;;;;;17.10;12.13;;;;;;;6.34;60.40;101683.22;5155050;27;20087;-71
2024/01/07 01:12:07;;;;;;;19.75;12.30;;;;;;;6.28;60.89;101682.06;5161636;27;20042;-71
2024/01/07 01:14:35;;;;;;;19.02;12.15;;;;;;;6.34;60.68;101691.22;5143890;27;20044;-70
2024/01/07 01:17:04;;;;;;;20.65;12.63;;;;;;;6.34;60.10;101692.06;5151288;27;20055;-71
2024/01/07 01:19:33;;;;;;;18.75;13.13;;;;;;;6.33;60.29;101686.91;5148166;27;20069;-70
2024/01/07 01:22:01;;;;;;;17.13;11.95;;;;;;;6.30;60.23;101692.59;5148949;27;20050;-71
2024/01/07 01:24:28;;;;;;;17.23;11.68;;;;;;;6.24;60.69;101696.78;5154795;27;20047;-71
2024/01/07 01:26:57;;;;;;;16.38;11.18;;;;;;;6.25;60.34;101694.94;5137835;27;20089;-72
2024/01/07 01:29:25;;;;;;;17.40;12.10;;;;;;;6.12;60.76;101700.81;5151054;27;20051;-70
2024/01/07 01:31:52;;;;;;;16.02;11.70;;;;;;;6.05;61.23;101707.84;5147697;27;20150;-71
2024/01/07 01:34:22;;;;;;;17.63;12.75;;;;;;;6.11;61.07;101700.00;5153854;27;20129;-71
2024/01/07 01:36:50;;;;;;;16.38;11.57;;;;;;;6.11;60.88;101708.00;5147008;27;20088;-71
2024/01/07 01:39:18;;;;;;;15.20;11.40;;;;;;;6.16;60.53;101708.31;5153620;27;20124;-71
2024/01/07 01:41:46;;;;;;;15.23;11.07;;;;;;;6.12;60.89;101707.00;5151329;27;20107;-71
2024/01/07 01:44:14;;;;;;;16.50;11.68;;;;;;;6.14;60.49;101704.16;5137649;27;20121;-71
2024/01/07 01:46:42;;;;;;;14.63;11.25;;;;;;;6.12;60.71;101708.81;5148010;27;20059;-71
2024/01/07 01:49:09;;;;;;;18.40;11.40;;;;;;;6.14;60.28;101707.66;5152690;27;20120;-71
2024/01/07 01:51:39;;;;;;;15.50;10.98;;;;;;;6.15;61.05;101711.16;5152798;27;20051;-71
2024/01/07 01:54:07;;;;;;;16.45;11.73;;;;;;;6.10;60.81;101719.66;5147311;27;20108;-72
2024/01/07 01:56:35;;;;;;;16.05;11.30;;;;;;;6.06;61.29;101725.53;5153248;27;20118;-72
2024/01/07 01:59:03;;;;;;;17.95;12.32;;;;;;;6.06;61.03;101722.84;5148006;27;20047;-72
2024/01/07 02:01:32;;;;;;;17.02;11.57;;;;;;;6.05;61.13;101726.53;5142519;27;20051;-72
2024/01/07 02:04:00;;;;;;;19.83;12.20;;;;;;;5.96;61.29;101730.22;5139535;27;20047;-72
2024/01/07 02:06:28;;;;;;;19.00;12.40;;;;;;;5.98;61.29;101720.19;5138670;27;20043;-72
2024/01/07 02:08:57;;;;;;;18.55;13.57;;;;;;;6.00;61.23;101735.03;5150627;27;20212;-72
2024/01/07 02:11:25;;;;;;;18.98;12.75;;;;;;;5.98;61.14;101733.53;5149243;27;20103;-72
2024/01/07 02:13:53;;;;;;;19.92;13.68;;;;;;;6.00;60.91;101735.03;5152392;27;20046;-72
2024/01/07 02:16:21;;;;;;;18.08;13.00;;;;;;;6.04;61.34;101740.88;5153143;27;20117;-72
2024/01/07 02:18:49;;;;;;;19.95;13.50;;;;;;;5.97;61.54;101742.56;5151929;27;20581;-72
2024/01/07 02:21:17;;;;;;;22.92;13.70;;;;;;;5.87;61.46;101746.19;5149263;27;20058;-72
2024/01/07 02:23:45;;;;;;;24.20;15.48;;;;;;;5.80;61.71;101744.38;5149525;27;20066;-72
2024/01/07 02:26:14;;;;;;;23.05;14.93;;;;;;;5.77;61.76;101753.53;5147958;27;20489;-72
2024/01/07 02:28:41;;;;;;;20.70;13.93;;;;;;;5.78;61.77;101749.88;5146018;27;20051;-72
2024/01/07 02:31:09;;;;;;;23.38;14.48;;;;;;;5.78;61.98;101741.88;5149622;27;20065;-72
2024/01/07 02:33:37;;;;;;;25.42;15.32;;;;;;;5.86;61.98;101751.72;5144617;27;20068;-72
2024/01/07 02:36:05;;;;;;;19.38;13.95;;;;;;;5.87;61.61;101751.53;5150641;27;20063;-72
2024/01/07 02:38:33;;;;;;;25.52;15.13;;;;;;;5.88;61.62;101755.03;5143124;27;20058;-72
2024/01/07 02:41:01;;;;;;;22.90;14.18;;;;;;;5.89;61.67;101759.41;5150430;27;20042;-72
2024/01/07 02:43:30;;;;;;;22.08;14.35;;;;;;;5.86;61.75;101754.38;5141596;27;20061;-72
2024/01/07 02:45:58;;;;;;;24.42;15.20;;;;;;;5.93;61.70;101755.41;5149136;27;20046;-72
2024/01/07 02:48:26;;;;;;;20.13;13.23;;;;;;;5.87;61.91;101762.22;5145411;27;20433;-72
2024/01/07 02:50:54;;;;;;;18.70;13.77;;;;;;;5.77;61.97;101750.88;5151758;27;20046;-71
2024/01/07 02:53:22;;;;;;;20.65;14.40;;;;;;;5.74;62.37;101756.56;5153165;27;20453;-72
2024/01/07 02:55:49;;;;;;;24.40;15.27;;;;;;;5.77;61.92;101766.88;5151244;27;20042;-72
2024/01/07 02:58:17;;;;;;;21.23;13.68;;;;;;;5.78;62.32;101762.38;5150224;27;20046;-72
2024/01/07 03:00:46;;;;;;;23.73;14.70;;;;;;;5.81;62.31;101759.38;5149369;27;20043;-72
2024/01/07 03:03:14;;;;;;;22.13;13.88;;;;;;;5.78;62.17;101768.56;5142109;27;20357;-71
2024/01/07 03:05:42;;;;;;;20.67;14.23;;;;;;;5.80;62.31;101773.72;5147015;27;20059;-71
2024/01/07 03:08:10;;;;;;;21.90;14.43;;;;;;;5.79;62.39;101769.38;5150084;27;20100;-71
2024/01/07 03:10:38;;;;;;;24.23;15.23;;;;;;;5.74;62.72;101774.38;5140362;27;20050;-71
2024/01/07 03:13:06;;;;;;;23.52;15.35;;;;;;;5.68;62.93;101775.06;5150082;27;20059;-71
2024/01/07 03:15:34;;;;;;;22.20;14.80;;;;;;;5.76;62.43;101789.22;5145140;27;20042;-71
2024/01/07 03:18:03;;;;;;;23.33;14.85;;;;;;;5.69;62.66;101790.06;5146234;27;20074;-71
2024/01/07 03:20:31;;;;;;;25.35;14.60;;;;;;;5.66;62.96;101791.22;5147932;27;20043;-71
2024/01/07 03:23:01;;;;;;;24.70;15.18;;;;;;;5.71;62.64;101793.38;5151556;27;20043;-71
2024/01/07 03:25:28;;;;;;;27.40;16.50;;;;;;;5.75;62.97;101794.72;5150805;27;20088;-72
2024/01/07 03:27:56;;;;;;;24.83;16.55;;;;;;;5.79;62.99;101796.06;5150017;27;20072;-72
2024/01/07 03:30:24;;;;;;;27.15;17.58;;;;;;;5.74;62.76;101793.06;5145617;27;20139;-71
2024/01/07 03:32:52;;;;;;;29.42;16.88;;;;;;;5.73;62.83;101788.72;5140346;27;20075;-72
2024/01/07 03:35:23;;;;;;;28.33;17.55;;;;;;;5.74;62.99;101796.56;5146001;27;20077;-71
2024/01/07 03:37:51;;;;;;;30.95;17.17;;;;;;;5.76;62.62;101789.22;5149929;27;20050;-71
2024/01/07 03:40:19;;;;;;;32.63;17.45;;;;;;;5.76;62.71;101789.22;5142854;27;20091;-71
2024/01/07 03:42:47;;;;;;;31.40;18.27;;;;;;;5.80;62.54;101793.22;5143939;27;20051;-71
2024/01/07 03:45:15;;;;;;;32.33;16.27;;;;;;;5.71;62.85;101778.22;5125983;27;20147;-72
2024/01/07 03:47:43;;;;;;;28.23;18.00;;;;;;;5.78;62.60;101794.38;5038319;28;20049;-71
2024/01/07 03:50:11;;;;;;;29.85;17.15;;;;;;;5.81;62.32;101791.38;5034926;28;20058;-71
2024/01/07 03:52:40;;;;;;;27.60;18.08;;;;;;;5.81;62.59;101799.38;5039601;28;20061;-71
2024/01/07 03:55:08;;;;;;;28.90;17.05;;;;;;;5.73;62.62;101797.56;5044374;28;20048;-71
2024/01/07 03:57:36;;;;;;;24.48;15.63;;;;;;;5.71;62.36;101804.06;5042946;28;20077;-72
2024/01/07 04:00:05;;;;;;;31.77;16.60;;;;;;;5.62;62.62;101808.56;5036924;27;20126;-72
2024/01/07 04:02:33;;;;;;;26.98;15.18;;;;;;;5.56;62.77;101812.72;5043139;28;20050;-71
2024/01/07 04:05:01;;;;;;;25.48;15.93;;;;;;;5.51;62.95;101814.22;5046008;28;20067;-71
2024/01/07 04:07:29;;;;;;;24.58;15.43;;;;;;;5.51;62.47;101816.88;5045857;28;20053;-70
2024/01/07 04:09:58;;;;;;;21.85;14.70;;;;;;;5.48;62.53;101814.53;5053830;27;20041;-72
2024/01/07 04:12:26;;;;;;;25.15;14.60;;;;;;;5.54;62.52;101816.53;5038517;28;20054;-71
2024/01/07 04:14:54;;;;;;;20.67;12.93;;;;;;;5.60;62.23;101817.72;5047255;28;20052;-72
2024/01/07 04:17:21;;;;;;;21.33;13.52;;;;;;;5.53;62.56;101820.22;5045255;28;20103;-71
2024/01/07 04:19:49;;;;;;;21.38;13.73;;;;;;;5.56;62.31;101822.53;5044517;28;20607;-71
2024/01/07 04:22:17;;;;;;;20.40;12.82;;;;;;;5.57;62.38;101829.56;5036628;28;20508;-71
2024/01/07 04:24:45;;;;;;;20.73;14.23;;;;;;;5.62;62.33;101829.06;5036404;28;20046;-72
2024/01/07 04:27:14;;;;;;;19.42;12.82;;;;;;;5.64;62.57;101835.88;5041149;28;20125;-71
2024/01/07 04:29:42;;;;;;;20.80;13.05;;;;;;;5.60;62.54;101837.22;5039117;28;20110;-71
2024/01/07 04:32:09;;;;;;;16.85;11.55;;;;;;;5.55;62.14;101842.22;5029382;28;20045;-71
2024/01/07 04:34:37;;;;;;;16.23;12.00;;;;;;;5.56;62.20;101847.38;5040516;28;20057;-71
2024/01/07 04:37:05;;;;;;;18.50;12.68;;;;;;;5.53;62.55;101846.88;5033715;28;20056;-71
2024/01/07 04:39:33;;;;;;;20.02;11.80;;;;;;;5.57;62.09;101838.38;5042455;28;20045;-71
2024/01/07 04:42:01;;;;;;;20.17;11.93;;;;;;;5.58;62.03;101841.88;5039624;28;20049;-71
2024/01/07 04:44:30;;;;;;;17.50;11.73;;;;;;;5.63;61.98;101846.72;5037193;28;20448;-71
2024/01/07 04:46:58;;;;;;;16.85;11.07;;;;;;;5.72;61.58;101851.91;5131997;27;20076;-71
2024/01/07 04:49:26;;;;;;;15.13;10.48;;;;;;;5.59;62.25;101851.56;5146529;27;20527;-71
2024/01/07 04:51:54;;;;;;;17.08;11.48;;;;;;;5.55;61.91;101858.22;5144424;27;20047;-71
2024/01/07 04:54:22;;;;;;;17.42;11.25;;;;;;;5.49;62.32;101866.88;5150210;27;20046;-71
2024/01/07 04:56:50;;;;;;;18.00;11.73;;;;;;;5.47;62.21;101868.84;5144788;27;20066;-71
2024/01/07 04:59:17;;;;;;;16.25;11.18;;;;;;;5.44;62.33;101870.00;5141788;27;20068;-71
2024/01/07 05:01:46;;;;;;;19.20;10.75;;;;;;;5.45;62.38;101870.84;5144889;27;20070;-71
2024/01/07 05:04:14;;;;;;;21.63;11.40;;;;;;;5.52;62.19;101867.38;5135245;27;20067;-72
2024/01/07 05:06:45;;;;;;;19.20;11.10;;;;;;;5.51;62.32;101872.88;5144256;27;20050;-71
2024/01/07 05:09:13;;;;;;;17.58;10.90;;;;;;;5.51;62.03;101867.53;5157283;27;20070;-72
2024/01/07 05:11:41;;;;;;;18.33;11.15;;;;;;;5.45;62.06;101874.34;5144537;27;20119;-72
2024/01/07 05:14:08;;;;;;;18.48;11.00;;;;;;;5.44;61.77;101869.19;5139769;27;20047;-71
2024/01/07 05:16:36;;;;;;;19.25;11.68;;;;;;;5.42;61.95;101876.50;5146620;27;20079;-71
2024/01/07 05:19:05;;;;;;;18.65;10.45;;;;;;;5.36;62.29;101883.31;5143257;27;20054;-71
2024/01/07 05:21:33;;;;;;;17.45;10.70;;;;;;;5.31;61.98;101880.31;5140736;27;20058;-72
2024/01/07 05:24:01;;;;;;;17.13;10.27;;;;;;;5.32;61.97;101881.16;5142953;27;20047;-72
2024/01/07 05:26:29;;;;;;;16.10;9.82;;;;;;;5.36;61.54;101891.31;5145268;27;20066;-72
2024/01/07 05:28:57;;;;;;;16.42;9.75;;;;;;;5.28;61.87;101880.63;5137085;27;20039;-72
2024/01/07 05:31:25;;;;;;;19.77;10.43;;;;;;;5.34;61.97;101889.81;5145906;27;20047;-72
2024/01/07 05:33:53;;;;;;;14.25;9.35;;;;;;;5.34;61.74;101895.16;5140407;27;20107;-71
2024/01/07 05:36:22;;;;;;;14.70;9.20;;;;;;;5.44;61.53;101907.34;5142774;27;20047;-72
2024/01/07 05:38:50;;;;;;;13.13;8.63;;;;;;;5.38;61.66;101901.81;5133022;27;20059;-71
2024/01/07 05:41:18;;;;;;;14.13;8.93;;;;;;;5.34;61.38;101913.81;5145211;27;20492;-72
2024/01/07 05:43:45;;;;;;;12.85;8.55;;;;;;;5.37;61.20;101913.47;5135772;27;20062;-72
2024/01/07 05:46:13;;;;;;;12.60;8.55;;;;;;;5.41;61.17;101926.31;5144018;27;20052;-72
2024/01/07 05:48:45;;;;;;;13.20;8.93;;;;;;;5.37;60.99;101916.16;5143285;27;20080;-71
2024/01/07 05:51:14;;;;;;;10.35;7.53;;;;;;;5.34;61.00;101922.63;5147158;27;20108;-71
2024/01/07 05:53:44;;;;;;;12.45;8.30;;;;;;;5.32;61.21;101919.28;5142776;27;20057;-72
2024/01/07 05:56:12;;;;;;;13.25;8.05;;;;;;;5.28;61.33;101928.59;5140284;27;20039;-72
2024/01/07 05:58:41;;;;;;;10.30;7.53;;;;;;;5.31;61.29;101922.13;4787866;27;10000214;-71
2024/01/07 06:01:09;;;;;;;11.65;7.60;;;;;;;5.30;61.20;101929.28;5147866;27;20046;-70
2024/01/07 06:03:37;;;;;;;11.35;7.75;;;;;;;5.37;60.99;101926.81;5139870;27;20069;-70
2024/01/07 06:06:05;;;;;;;9.55;6.63;;;;;;;5.45;60.85;101940.16;5141675;27;20122;-70
2024/01/07 06:08:33;;;;;;;10.32;6.85;;;;;;;5.73;59.85;101946.91;5139085;27;20050;-71
2024/01/07 06:11:02;;;;;;;10.93;7.28;;;;;;;5.73;59.55;101941.59;5141895;27;20043;-70
2024/01/07 06:13:30;;;;;;;10.48;7.22;;;;;;;6.03;59.20;101944.66;5150234;27;20062;-70
2024/01/07 06:15:58;;;;;;;9.98;7.28;;;;;;;6.08;58.44;101947.69;5141925;27;20108;-70
2024/01/07 06:18:26;;;;;;;11.25;6.35;;;;;;;6.21;58.56;101950.69;5141370;27;20468;-69
2024/01/07 06:20:54;;;;;;;13.27;7.75;;;;;;;6.43;57.96;101952.69;5137118;27;20503;-70
2024/01/07 06:23:21;;;;;;;11.30;7.30;;;;;;;6.70;57.07;101954.16;5138231;27;20051;-70
2024/01/07 06:25:49;;;;;;;10.95;7.30;;;;;;;6.82;56.67;101955.50;5130137;27;20065;-70
2024/01/07 06:28:18;;;;;;;10.48;6.38;;;;;;;6.80;56.93;101968.19;5148744;27;20132;-71
2024/01/07 06:30:46;;;;;;;10.60;7.15;;;;;;;6.56;57.15;101976.22;5137579;27;20515;-71
2024/01/07 06:33:14;;;;;;;9.70;6.75;;;;;;;6.42;57.35;101969.72;5131052;27;20054;-71
2024/01/07 06:35:42;;;;;;;10.35;7.20;;;;;;;6.26;58.30;101975.06;5143661;27;20047;-70
2024/01/07 06:38:10;;;;;;;12.20;7.38;;;;;;;5.90;59.00;101968.31;5140044;27;20080;-70
2024/01/07 06:40:38;;;;;;;11.15;6.90;;;;;;;5.85;59.29;101985.63;5131973;27;20051;-71
2024/01/07 06:43:06;;;;;;;11.50;7.00;;;;;;;5.83;59.23;101992.97;5136431;27;20061;-69
2024/01/07 06:45:35;;;;;;;10.65;7.15;;;;;;;5.65;59.83;101991.41;5127644;27;20089;-70
2024/01/07 06:48:03;;;;;;;12.88;7.40;;;;;;;5.55;59.53;101992.38;5040128;28;20046;-70
2024/01/07 06:50:31;;;;;;;10.23;7.03;;;;;;;5.51;59.53;102004.34;5026642;28;20081;-70
2024/01/07 06:52:59;;;;;;;11.45;7.82;;;;;;;5.45;59.85;102007.66;5039784;27;20071;-70
2024/01/07 06:55:27;;;;;;;10.77;6.97;;;;;;;5.38;60.22;102011.94;5034734;28;20068;-70
2024/01/07 06:57:54;;;;;;;11.02;7.22;;;;;;;5.43;60.04;102017.63;5035636;28;20053;-70
2024/01/07 07:00:23;;;;;;;11.48;7.20;;;;;;;5.47;59.72;102021.66;5036770;28;20055;-71
2024/01/07 07:02:53;;;;;;;13.23;7.43;;;;;;;5.47;59.90;102034.16;5033508;28;20060;-71
2024/01/07 07:05:20;;;;;;;11.02;7.22;;;;;;;5.40;60.00;102027.78;5028343;28;20061;-70
2024/01/07 07:07:48;;;;;;;10.38;6.63;;;;;;;5.42;59.96;102025.78;5033567;28;20050;-70
2024/01/07 07:10:20;;;;;;;9.18;6.30;;;;;;;5.26;60.35;102017.72;5035892;28;20053;-70
2024/01/07 07:12:48;;;;;;;9.23;6.43;;;;;;;5.20;60.29;102016.56;5027461;28;20541;-70
2024/01/07 07:15:16;;;;;;;11.93;7.70;;;;;;;5.34;60.18;102034.59;5025648;27;20053;-70
2024/01/07 07:17:44;;;;;;;10.60;7.18;;;;;;;5.38;60.04;102038.59;5033383;28;20045;-69
2024/01/07 07:20:13;;;;;;;10.77;6.95;;;;;;;5.36;59.75;102035.25;5033994;28;20049;-72
2024/01/07 07:22:41;;;;;;;10.27;6.57;;;;;;;5.36;59.93;102035.25;5022409;28;20056;-71
2024/01/07 07:25:09;;;;;;;10.15;7.03;;;;;;;5.38;60.35;102045.78;5029441;27;20046;-72
2024/01/07 07:27:38;;;;;;;9.55;7.57;;;;;;;5.40;60.22;102054.44;5029204;28;20049;-71
2024/01/07 07:30:07;;;;;;;10.10;6.80;;;;;;;5.31;60.21;102056.22;5031808;28;20052;-70
2024/01/07 07:32:35;;;;;;;10.90;7.38;;;;;;;5.26;60.86;102065.69;5031713;28;20045;-70
2024/01/07 07:35:03;;;;;;;11.65;7.57;;;;;;;5.26;60.28;102063.03;5031789;28;20064;-71
2024/01/07 07:37:33;;;;;;;11.63;7.25;;;;;;;5.27;60.42;102067.34;5032566;28;20090;-69
2024/01/07 07:40:00;;;;;;;11.55;7.43;;;;;;;5.26;60.52;102071.03;5020507;28;20086;-69
2024/01/07 07:42:28;;;;;;;12.15;7.50;;;;;;;5.29;60.20;102079.53;5018231;28;20064;-69
2024/01/07 07:44:58;;;;;;;10.27;7.30;;;;;;;5.24;60.59;102084.50;5023462;28;20436;-69
2024/01/07 07:47:26;;;;;;;12.23;7.03;;;;;;;5.18;60.47;102091.31;5108272;28;20052;-69
2024/01/07 07:49:53;;;;;;;12.43;7.95;;;;;;;5.16;60.51;102097.81;5123158;28;20052;-69
2024/01/07 07:52:23;;;;;;;11.55;8.05;;;;;;;5.11;60.54;102102.75;5120865;28;20067;-68
2024/01/07 07:54:52;;;;;;;10.07;7.43;;;;;;;5.04;60.68;102101.72;5120663;28;20071;-69
2024/01/07 07:57:21;;;;;;;12.70;8.18;;;;;;;5.02;60.38;102109.84;5133917;27;20417;-69
2024/01/07 07:59:49;;;;;;;13.30;7.88;;;;;;;5.00;60.36;102111.00;5141381;27;20051;-69
2024/01/07 08:02:17;;;;;;;14.65;8.30;;;;;;;4.96;60.66;102115.78;5120308;28;20047;-69
2024/01/07 08:04:45;;;;;;;10.52;7.03;;;;;;;4.95;60.08;102119.44;5124881;27;20051;-69
2024/01/07 08:07:12;;;;;;;11.90;7.68;;;;;;;5.05;60.23;102112.22;5136275;27;20054;-68
2024/01/07 08:09:40;;;;;;;13.02;8.05;;;;;;;5.03;60.48;102108.88;5139046;27;20086;-66
2024/01/07 08:12:11;;;;;;;13.73;7.72;;;;;;;5.07;60.40;102118.22;5148511;27;20132;-67
2024/01/07 08:14:40;;;;;;;13.07;8.15;;;;;;;5.05;60.46;102128.19;5134991;27;20051;-67
2024/01/07 08:17:08;;;;;;;15.02;8.57;;;;;;;4.98;60.27;102127.13;5149055;27;20089;-68
2024/01/07 08:19:37;;;;;;;14.13;8.52;;;;;;;4.93;60.25;102117.94;5151431;27;20443;-68
2024/01/07 08:22:05;;;;;;;10.63;7.00;;;;;;;4.95;60.24;102130.09;5152795;27;20099;-67
2024/01/07 08:24:33;;;;;;;11.63;6.93;;;;;;;5.00;60.21;102133.16;5141726;27;20043;-67
2024/01/07 08:27:01;;;;;;;11.23;7.65;;;;;;;5.03;60.15;102132.00;5135648;27;20043;-70
2024/01/07 08:29:30;;;;;;;13.43;7.43;;;;;;;5.07;60.33;102146.69;5133858;27;20050;-68
2024/01/07 08:31:58;;;;;;;9.95;7.30;;;;;;;5.12;59.57;102147.06;5141119;27;20135;-70
2024/01/07 08:34:26;;;;;;;11.98;7.78;;;;;;;5.23;58.95;102144.13;5141133;27;20050;-67
2024/01/07 08:36:54;;;;;;;14.02;7.90;;;;;;;5.49;58.29;102147.66;5144380;27;20291;-70
2024/01/07 08:39:22;;;;;;;11.82;7.80;;;;;;;5.70;57.89;102152.63;5141291;27;20656;-72
2024/01/07 08:41:52;;;;;;;13.13;7.10;;;;;;;5.91;57.35;102154.94;5144046;27;20058;-72
2024/01/07 08:44:19;;;;;;;12.40;7.53;;;;;;;6.08;56.99;102153.16;5141658;27;20416;-70
2024/01/07 08:46:49;;;;;;;13.52;8.40;;;;;;;6.10;56.37;102159.19;5148623;27;20055;-72
2024/01/07 08:49:16;;;;;;;14.90;7.80;;;;;;;6.26;56.37;102161.91;5141854;27;20445;-72
2024/01/07 08:51:44;;;;;;;12.10;7.88;;;;;;;6.46;55.85;102160.66;5142865;27;20054;-72
2024/01/07 08:54:12;;;;;;;15.18;8.25;;;;;;;6.47;54.96;102170.34;5145457;27;20548;-71
2024/01/07 08:56:40;;;;;;;12.35;7.68;;;;;;;6.22;55.47;102168.56;5141282;27;20071;-71
2024/01/07 08:59:08;;;;;;;12.82;7.65;;;;;;;6.30;55.54;102176.63;5148147;27;20624;-72
2024/01/07 09:01:36;;;;;;;11.95;7.80;;;;;;;6.27;55.55;102181.44;5138378;27;20077;-69
2024/01/07 09:04:05;;;;;;;13.38;8.20;;;;;;;6.17;55.73;102189.56;5123451;28;20056;-68
2024/01/07 09:06:33;;;;;;;13.52;8.40;;;;;;;5.95;56.42;102190.97;5123498;28;20083;-67
2024/01/07 09:09:01;;;;;;;13.55;7.63;;;;;;;5.88;56.81;102185.41;5131522;27;20050;-66
2024/01/07 09:11:28;;;;;;;13.75;7.82;;;;;;;5.90;56.87;102190.59;5135479;27;20052;-67
2024/01/07 09:13:56;;;;;;;13.68;7.60;;;;;;;5.85;56.98;102193.72;5128821;27;20066;-70
2024/01/07 09:16:24;;;;;;;12.25;7.28;;;;;;;5.83;57.34;102195.69;5122706;27;20356;-69
2024/01/07 09:18:52;;;;;;;12.48;6.63;;;;;;;5.71;57.60;102204.97;5146427;27;20472;-72
2024/01/07 09:21:23;;;;;;;11.38;6.95;;;;;;;5.57;57.66;102201.03;5133110;27;20047;-72
2024/01/07 09:23:50;;;;;;;12.77;7.55;;;;;;;5.55;57.81;102207.50;5137449;27;20106;-71
2024/01/07 09:26:18;;;;;;;11.15;6.60;;;;;;;5.58;57.88;102207.19;5147232;27;20051;-71
2024/01/07 09:28:46;;;;;;;12.05;7.32;;;;;;;5.60;57.83;102212.38;5144017;27;20043;-70
2024/01/07 09:31:15;;;;;;;10.63;7.07;;;;;;;5.48;58.22;102217.13;5148358;27;20047;-71
2024/01/07 09:33:43;;;;;;;13.02;7.05;;;;;;;5.28;58.55;102218.28;5146380;27;20059;-71
2024/01/07 09:36:11;;;;;;;11.95;7.28;;;;;;;5.29;58.82;102227.97;5145631;27;20443;-72
2024/01/07 09:38:57;;;;;;;8.65;6.40;;;;;;;5.36;58.48;102239.69;5141392;27;20050;-75
2024/01/07 09:41:25;;;;;;;12.32;7.10;;;;;;;5.33;58.37;102240.00;5147124;27;20078;-74
2024/01/07 09:43:53;;;;;;;12.38;6.82;;;;;;;5.28;58.73;102242.28;5142937;27;20051;-75
2024/01/07 09:46:23;;;;;;;11.38;6.75;;;;;;;5.23;58.69;102246.25;5147296;27;20567;-73
2024/01/07 09:48:51;;;;;;;9.10;6.10;;;;;;;5.16;59.02;102253.19;5144919;27;20047;-66
2024/01/07 09:51:23;;;;;;;10.15;6.13;;;;;;;5.04;58.76;102248.25;5142867;27;20047;-69
2024/01/07 09:53:58;;;;;;;9.57;6.53;;;;;;;5.12;58.69;102253.66;5145439;27;20050;-68
2024/01/07 09:56:35;;;;;;;9.68;6.53;;;;;;;5.22;58.73;102249.06;5148379;27;20463;-70
2024/01/07 09:59:03;;;;;;;9.73;5.80;;;;;;;5.19;58.82;102258.22;5145455;27;20043;-70
2024/01/07 10:01:32;;;;;;;10.95;6.53;;;;;;;5.14;58.37;102259.66;5147051;27;20063;-69
2024/01/07 10:04:00;;;;;;;8.60;5.90;;;;;;;5.07;59.35;102267.44;5137260;27;20058;-70
2024/01/07 10:06:28;;;;;;;8.13;5.90;;;;;;;5.07;58.71;102261.25;5138226;27;20383;-69
2024/01/07 10:08:56;;;;;;;11.57;5.75;;;;;;;5.18;58.97;102264.53;5142431;27;20043;-70
2024/01/07 10:11:24;;;;;;;10.85;6.40;;;;;;;5.34;58.23;102260.31;5134160;27;20047;-69
2024/01/07 10:13:54;;;;;;;8.82;5.45;;;;;;;5.63;57.16;102273.41;5143855;27;20051;-70
2024/01/07 10:16:22;;;;;;;9.50;5.32;;;;;;;5.77;56.61;102271.03;5147263;27;20043;-71
2024/01/07 10:18:49;;;;;;;8.48;5.68;;;;;;;5.91;56.36;102282.16;5144812;27;20052;-70
2024/01/07 10:21:17;;;;;;;7.35;5.68;;;;;;;6.12;55.89;102282.63;5148167;27;20073;-70
2024/01/07 10:23:45;;;;;;;9.52;5.40;;;;;;;6.26;55.58;102279.38;5145273;27;20411;-69
2024/01/07 10:26:13;;;;;;;7.97;5.40;;;;;;;6.45;55.37;102286.31;5142433;27;20116;-69
2024/01/07 10:28:55;;;;;;;9.50;5.85;;;;;;;6.33;54.90;102287.59;5143127;27;20047;-70
2024/01/07 10:31:23;;;;;;;7.82;5.05;;;;;;;6.12;55.70;102287.97;5134426;27;20043;-73
2024/01/07 10:33:51;;;;;;;7.90;5.13;;;;;;;6.00;56.21;102294.56;5140107;27;20054;-71
2024/01/07 10:36:22;;;;;;;8.45;5.53;;;;;;;5.81;56.46;102283.06;5137199;27;20046;-71
2024/01/07 10:38:50;;;;;;;6.90;5.47;;;;;;;5.63;56.93;102289.41;5141886;27;20051;-72
2024/01/07 10:41:19;;;;;;;9.52;5.45;;;;;;;5.71;56.61;102292.16;5138695;27;20140;-70
2024/01/07 10:43:48;;;;;;;7.15;4.90;;;;;;;5.69;56.73;102283.47;5142110;27;20055;-70
2024/01/07 10:46:18;;;;;;;7.85;5.15;;;;;;;5.65;56.96;102290.09;5140420;27;20074;-70
2024/01/07 10:48:54;;;;;;;7.47;4.97;;;;;;;5.49;57.30;102296.97;5139241;27;20051;-70
2024/01/07 10:51:23;;;;;;;7.83;5.10;;;;;;;5.33;57.43;102287.97;5137020;27;20082;-69
2024/01/07 10:53:54;;;;;;;7.35;5.28;;;;;;;5.17;58.04;102300.19;5141686;27;20116;-70
2024/01/07 10:56:24;;;;;;;7.38;5.18;;;;;;;5.13;58.30;102298.81;5136037;27;20050;-70
2024/01/07 10:58:54;;;;;;;10.05;5.45;;;;;;;5.09;58.37;102305.44;5140508;27;20064;-70
2024/01/07 11:01:23;;;;;;;8.75;5.70;;;;;;;5.11;58.19;102303.44;5143840;27;20114;-68
2024/01/07 11:04:02;;;;;;;7.70;4.93;;;;;;;5.14;58.07;102305.81;5138058;27;20051;-71
2024/01/07 11:06:40;;;;;;;7.10;4.75;;;;;;;5.20;57.52;102293.72;5148053;27;20055;-69
2024/01/07 11:09:13;;;;;;;;;;;;;;;5.17;57.94;102304.66;5145707;27;20043;-70
2024/01/07 11:11:42;;;;;;;7.38;5.57;;;;;;;5.09;57.98;102301.91;5145100;27;19919;-68
2024/01/07 11:14:35;;;;;;;7.70;5.25;;;;;;;5.02;58.34;102307.00;5136867;27;20520;-66
2024/01/07 11:17:05;;;;;;;6.05;4.25;;;;;;;5.06;58.20;102303.06;5149615;27;20046;-69
2024/01/07 11:19:33;;;;;;;7.47;5.35;;;;;;;5.08;57.82;102303.75;5141039;27;20058;-69
2024/01/07 11:22:24;;;;;;;9.65;4.75;;;;;;;4.95;58.19;102289.94;5148120;27;20081;-65
2024/01/07 11:24:52;;;;;;;9.38;5.75;;;;;;;4.93;58.83;102301.75;5142194;27;20050;-69
2024/01/07 11:27:22;;;;;;;8.63;5.45;;;;;;;4.95;58.54;102299.75;5141927;27;20039;-67